Balkar Trust — 3FXS7 — position and weather

sailwx.info

Track history (hours):
 
Tides and Currents Weather Stations Pressure Air Temp Water Temp Dewpoint Dewpoint Depression Visibility Wind Speed Wind Dir Waves Ship Positions

Balkar Trust

Last reported at 2017-Apr-19 09:59 UTC. Time now 2017-Apr-30 01:20 UTC.
Position N 01°60' E 102°14'.
Warning: this ship's position is 10 days out of date.

Length 185 m; draft 9.7 m.

Type: Cargo ship. MMSI: 372927000.

Date/timePositionNaut miles runAvg speedWind from/ knotsBaromVisibWave heightAir tempDewpointWater temp
2017-Apr-19 09:59N 01°60' E 102°14'613.0
2017-Apr-19 09:30N 01°56' E 102°19'612.8
2017-Apr-19 09:00N 01°52' E 102°24'612.7
2017-Apr-19 08:30N 01°49' E 102°30'712.5
2017-Apr-19 07:58N 01°46' E 102°36'712.4
2017-Apr-19 07:21N 01°43' E 102°43'4612.3
2017-Apr-19 03:38N 01°18' E 103°21'213.2
2017-Apr-19 03:30N 01°16' E 103°22'612.7
2017-Apr-19 03:00N 01°14' E 103°28'612.4
2017-Apr-19 02:30N 01°12' E 103°34'611.2
2017-Apr-19 02:00N 01°11' E 103°39'510.4
2017-Apr-19 01:30N 01°09' E 103°44'5 9.6
2017-Apr-19 01:00N 01°10' E 103°48'4 7.4
2017-Apr-19 00:30N 01°12' E 103°52'4 8.6
2017-Apr-19 00:00N 01°14' E 103°55'5 9.4
2017-Apr-18 23:30N 01°16' E 103°60'2 4.4
2017-Apr-18 23:00N 01°17' E 104°01'0 0.1
2017-Apr-18 22:19N 01°17' E 104°01'0 0.0
2017-Apr-18 21:58N 01°17' E 104°01'0 0.0
2017-Apr-18 21:28N 01°17' E 104°01'0 0.0
2017-Apr-18 20:58N 01°17' E 104°01'0 0.0
2017-Apr-18 20:16N 01°17' E 104°01'0 0.1
2017-Apr-18 19:55N 01°17' E 104°01'0 0.2
2017-Apr-18 19:13N 01°17' E 104°01'0 0.1
2017-Apr-18 18:43N 01°17' E 104°01'0 0.0
2017-Apr-18 18:19N 01°17' E 104°01'0 0.0
2017-Apr-18 17:58N 01°17' E 104°01'0 0.0
2017-Apr-18 17:16N 01°17' E 104°01'0 0.0
2017-Apr-18 16:04N 01°17' E 104°01'0 0.0
2017-Apr-18 12:43N 01°17' E 104°01'0 0.0
2017-Apr-18 12:13N 01°17' E 104°01'0 0.0
2017-Apr-18 11:58N 01°17' E 104°01'0 0.0
2017-Apr-18 11:25N 01°17' E 104°01'0 0.0
2017-Apr-18 08:19N 01°17' E 104°01'0 1.3
2017-Apr-18 08:00N 01°17' E 104°01'2 3.2
2017-Apr-18 07:30N 01°16' E 103°60'2 3.5
2017-Apr-18 07:00N 01°16' E 103°58'2 3.7
2017-Apr-18 06:30N 01°16' E 103°60'3 5.6
2017-Apr-18 06:00N 01°16' E 104°02'  
2017-Apr-12 20:55N 22°28' E 119°45'813.2
2017-Apr-12 20:19N 22°33' E 119°51'412.2
2017-Apr-12 20:00N 22°37' E 119°53'713.2
2017-Apr-12 19:30N 22°43' E 119°53'713.7
2017-Apr-12 19:00N 22°50' E 119°52'  
Track history (hours):
 
Tides and Currents Weather Stations Pressure Air Temp Water Temp Dewpoint Dewpoint Depression Visibility Wind Speed Wind Dir Waves Ship Positions

Balkar Trust

Last reported at 2017-Apr-19 09:59 UTC. Time now 2017-Apr-30 01:20 UTC.
Position N 01°60' E 102°14'.
Warning: this ship's position is 10 days out of date.

Length 185 m; draft 9.7 m.

Type: Cargo ship. MMSI: 372927000.

Date/timePositionNaut miles runAvg speedWind from/ knotsBaromVisibWave heightAir tempDewpointWater temp
2017-Apr-19 09:59N 01°60' E 102°14'613.0
2017-Apr-19 09:30N 01°56' E 102°19'612.8
2017-Apr-19 09:00N 01°52' E 102°24'612.7
2017-Apr-19 08:30N 01°49' E 102°30'712.5
2017-Apr-19 07:58N 01°46' E 102°36'712.4
2017-Apr-19 07:21N 01°43' E 102°43'4612.3
2017-Apr-19 03:38N 01°18' E 103°21'213.2
2017-Apr-19 03:30N 01°16' E 103°22'612.7
2017-Apr-19 03:00N 01°14' E 103°28'612.4
2017-Apr-19 02:30N 01°12' E 103°34'611.2
2017-Apr-19 02:00N 01°11' E 103°39'510.4
2017-Apr-19 01:30N 01°09' E 103°44'5 9.6
2017-Apr-19 01:00N 01°10' E 103°48'4 7.4
2017-Apr-19 00:30N 01°12' E 103°52'4 8.6
2017-Apr-19 00:00N 01°14' E 103°55'5 9.4
2017-Apr-18 23:30N 01°16' E 103°60'2 4.4
2017-Apr-18 23:00N 01°17' E 104°01'0 0.1
2017-Apr-18 22:19N 01°17' E 104°01'0 0.0
2017-Apr-18 21:58N 01°17' E 104°01'0 0.0
2017-Apr-18 21:28N 01°17' E 104°01'0 0.0
2017-Apr-18 20:58N 01°17' E 104°01'0 0.0
2017-Apr-18 20:16N 01°17' E 104°01'0 0.1
2017-Apr-18 19:55N 01°17' E 104°01'0 0.2
2017-Apr-18 19:13N 01°17' E 104°01'0 0.1
2017-Apr-18 18:43N 01°17' E 104°01'0 0.0
2017-Apr-18 18:19N 01°17' E 104°01'0 0.0
2017-Apr-18 17:58N 01°17' E 104°01'0 0.0
2017-Apr-18 17:16N 01°17' E 104°01'0 0.0
2017-Apr-18 16:04N 01°17' E 104°01'0 0.0
2017-Apr-18 12:43N 01°17' E 104°01'0 0.0
2017-Apr-18 12:13N 01°17' E 104°01'0 0.0
2017-Apr-18 11:58N 01°17' E 104°01'0 0.0
2017-Apr-18 11:25N 01°17' E 104°01'0 0.0
2017-Apr-18 08:19N 01°17' E 104°01'0 1.3
2017-Apr-18 08:00N 01°17' E 104°01'2 3.2
2017-Apr-18 07:30N 01°16' E 103°60'2 3.5
2017-Apr-18 07:00N 01°16' E 103°58'2 3.7
2017-Apr-18 06:30N 01°16' E 103°60'3 5.6
2017-Apr-18 06:00N 01°16' E 104°02'  
2017-Apr-12 20:55N 22°28' E 119°45'813.2
2017-Apr-12 20:19N 22°33' E 119°51'412.2
2017-Apr-12 20:00N 22°37' E 119°53'713.2
2017-Apr-12 19:30N 22°43' E 119°53'713.7
2017-Apr-12 19:00N 22°50' E 119°52'  

Dump ship's entire track history